createdAt,value
2018-12-13T00:01:22.297Z,100.00
2018-12-13T00:03:50.644Z,100.00
2018-12-13T00:06:18.952Z,100.00
2018-12-13T00:08:47.418Z,100.00
2018-12-13T00:11:15.827Z,100.00
2018-12-13T00:13:44.160Z,100.00
2018-12-13T00:16:12.489Z,100.00
2018-12-13T00:18:40.788Z,99.66
2018-12-13T00:21:09.103Z,98.89
2018-12-13T00:23:37.455Z,98.15
2018-12-13T00:26:05.765Z,98.50
2018-12-13T00:28:34.109Z,98.76
2018-12-13T00:31:02.447Z,99.00
2018-12-13T00:33:30.841Z,99.78
2018-12-13T00:35:59.169Z,98.56
2018-12-13T00:38:27.492Z,98.45
2018-12-13T00:40:55.818Z,99.19
2018-12-13T00:43:24.255Z,98.24
2018-12-13T00:45:52.761Z,98.74
2018-12-13T00:48:21.084Z,99.35
2018-12-13T00:50:49.392Z,98.76
2018-12-13T00:53:17.707Z,99.43
2018-12-13T00:55:46.066Z,99.86
2018-12-13T00:58:14.427Z,100.00
2018-12-13T01:00:42.812Z,99.21
2018-12-13T01:03:11.143Z,99.53
2018-12-13T01:05:39.526Z,98.14
2018-12-13T01:08:07.864Z,100.00
2018-12-13T01:10:36.646Z,99.95
2018-12-13T01:13:05.173Z,98.69
2018-12-13T01:15:34.396Z,98.07
2018-12-13T01:18:02.788Z,99.36
2018-12-13T01:20:31.121Z,100.00
2018-12-13T01:22:59.443Z,100.00
2018-12-13T01:25:27.787Z,100.00
2018-12-13T01:27:56.119Z,100.00
2018-12-13T01:30:24.448Z,100.00
2018-12-13T01:32:52.807Z,100.00
2018-12-13T01:35:21.187Z,100.00
2018-12-13T01:37:49.534Z,100.00
2018-12-13T01:40:17.852Z,100.00
2018-12-13T01:42:46.193Z,100.00
2018-12-13T01:45:14.486Z,99.62
2018-12-13T01:47:42.847Z,100.00
2018-12-13T01:50:11.339Z,99.39
2018-12-13T01:52:39.661Z,99.31
2018-12-13T01:55:08.050Z,100.00
2018-12-13T01:57:36.383Z,100.00
2018-12-13T02:00:05.905Z,100.00
2018-12-13T02:02:34.235Z,100.00
2018-12-13T02:05:02.553Z,100.00
2018-12-13T02:07:30.963Z,100.00
2018-12-13T02:09:59.265Z,100.00
2018-12-13T02:12:27.653Z,100.00
2018-12-13T02:14:55.994Z,100.00
2018-12-13T02:17:24.328Z,100.00
2018-12-13T02:19:52.652Z,100.00
2018-12-13T02:22:20.976Z,100.00
2018-12-13T02:24:49.343Z,100.00
2018-12-13T02:27:17.770Z,100.00
2018-12-13T02:29:46.087Z,100.00
2018-12-13T02:32:14.405Z,100.00
2018-12-13T02:34:42.732Z,100.00
2018-12-13T02:37:11.146Z,100.00
2018-12-13T02:39:39.524Z,100.00
2018-12-13T02:42:07.909Z,100.00
2018-12-13T02:44:36.276Z,100.00
2018-12-13T02:47:05.587Z,100.00
2018-12-13T02:49:33.915Z,100.00
2018-12-13T02:52:02.237Z,100.00
2018-12-13T02:54:30.551Z,100.00
2018-12-13T02:56:58.890Z,100.00
2018-12-13T02:59:27.206Z,100.00
2018-12-13T03:01:55.587Z,100.00
2018-12-13T03:04:24.095Z,100.00
2018-12-13T03:06:52.481Z,100.00
2018-12-13T03:09:20.794Z,100.00
2018-12-13T03:11:49.115Z,100.00
2018-12-13T03:14:17.524Z,100.00
2018-12-13T03:16:45.840Z,100.00
2018-12-13T03:19:14.264Z,100.00
2018-12-13T03:21:42.583Z,100.00
2018-12-13T03:24:10.956Z,100.00
2018-12-13T03:26:39.256Z,100.00
2018-12-13T03:29:07.568Z,100.00
2018-12-13T03:31:35.885Z,100.00
2018-12-13T03:34:04.384Z,100.00
2018-12-13T03:36:32.825Z,100.00
2018-12-13T03:39:01.401Z,100.00
2018-12-13T03:41:29.807Z,100.00
2018-12-13T03:43:58.155Z,100.00
2018-12-13T03:46:26.503Z,100.00
2018-12-13T03:48:54.820Z,100.00
2018-12-13T03:51:23.219Z,100.00
2018-12-13T03:53:51.798Z,100.00
2018-12-13T03:56:20.123Z,100.00
2018-12-13T03:58:48.458Z,100.00
2018-12-13T04:01:16.856Z,100.00
2018-12-13T04:03:45.216Z,100.00
2018-12-13T04:06:13.527Z,100.00
2018-12-13T04:08:41.971Z,100.00
2018-12-13T04:11:10.345Z,100.00
2018-12-13T04:13:38.816Z,100.00
2018-12-13T04:16:07.198Z,100.00
2018-12-13T04:18:35.540Z,100.00
2018-12-13T04:21:03.879Z,100.00
2018-12-13T04:23:32.227Z,100.00
2018-12-13T04:26:00.577Z,100.00
2018-12-13T04:28:28.896Z,100.00
2018-12-13T04:30:57.400Z,100.00
2018-12-13T04:33:25.771Z,100.00
2018-12-13T04:35:54.108Z,100.00
2018-12-13T04:38:22.458Z,100.00
2018-12-13T04:40:50.816Z,100.00
2018-12-13T04:43:19.164Z,100.00
2018-12-13T04:45:47.524Z,100.00
2018-12-13T04:48:15.895Z,100.00
2018-12-13T04:50:44.217Z,100.00
2018-12-13T04:53:12.561Z,100.00
2018-12-13T04:55:40.887Z,100.00
2018-12-13T04:58:09.192Z,100.00
2018-12-13T05:00:37.597Z,100.00
2018-12-13T05:03:05.945Z,100.00
2018-12-13T05:05:34.300Z,100.00
2018-12-13T05:08:02.652Z,100.00
2018-12-13T05:10:45.635Z,100.00
2018-12-13T05:13:13.971Z,100.00
2018-12-13T05:15:42.331Z,100.00
2018-12-13T05:18:10.668Z,100.00
2018-12-13T05:20:39.067Z,100.00
2018-12-13T05:23:07.516Z,100.00
2018-12-13T05:25:36.342Z,100.00
2018-12-13T05:28:04.884Z,100.00
2018-12-13T05:30:33.235Z,100.00
2018-12-13T05:33:01.655Z,100.00
2018-12-13T05:35:30.038Z,100.00
2018-12-13T05:37:58.412Z,100.00
2018-12-13T05:40:26.743Z,100.00
2018-12-13T05:42:55.106Z,100.00
2018-12-13T05:45:23.446Z,100.00
2018-12-13T05:47:51.784Z,100.00
2018-12-13T05:50:20.224Z,100.00
2018-12-13T05:52:48.562Z,100.00
2018-12-13T05:55:16.987Z,100.00
2018-12-13T05:57:45.302Z,100.00
2018-12-13T06:00:14.138Z,100.00
2018-12-13T06:02:42.466Z,100.00
2018-12-13T06:05:10.900Z,100.00
2018-12-13T06:07:39.262Z,100.00
2018-12-13T06:10:07.885Z,100.00
2018-12-13T06:12:36.263Z,100.00
2018-12-13T06:15:05.816Z,100.00
2018-12-13T06:17:34.163Z,100.00
2018-12-13T06:20:02.550Z,100.00
2018-12-13T06:22:31.007Z,100.00
2018-12-13T06:24:59.439Z,100.00
2018-12-13T06:27:27.787Z,100.00
2018-12-13T06:29:59.090Z,100.00
2018-12-13T06:32:26.484Z,100.00
2018-12-13T06:34:54.847Z,100.00
2018-12-13T06:37:23.170Z,100.00
2018-12-13T06:39:51.739Z,100.00
2018-12-13T06:42:20.091Z,100.00
2018-12-13T06:44:48.527Z,100.00
2018-12-13T06:47:16.871Z,100.00
2018-12-13T06:49:45.291Z,100.00
2018-12-13T06:52:13.814Z,100.00
2018-12-13T06:54:42.254Z,100.00
2018-12-13T06:57:10.759Z,100.00
2018-12-13T06:59:39.185Z,100.00
2018-12-13T07:02:07.522Z,100.00
2018-12-13T07:04:35.918Z,100.00
2018-12-13T07:07:04.231Z,100.00
2018-12-13T07:09:32.567Z,100.00
2018-12-13T07:12:00.928Z,100.00
2018-12-13T07:14:29.327Z,100.00
2018-12-13T07:16:57.737Z,100.00
2018-12-13T07:19:26.054Z,100.00
2018-12-13T07:21:54.385Z,100.00
2018-12-13T07:24:22.712Z,100.00
2018-12-13T07:26:51.067Z,100.00
2018-12-13T07:29:19.511Z,100.00
2018-12-13T07:31:47.849Z,100.00
2018-12-13T07:34:16.229Z,100.00
2018-12-13T07:36:44.596Z,100.00
2018-12-13T07:39:12.924Z,100.00
2018-12-13T07:41:41.244Z,100.00
2018-12-13T07:44:09.606Z,100.00
2018-12-13T07:46:37.923Z,100.00
2018-12-13T07:49:06.396Z,100.00
2018-12-13T07:51:34.729Z,100.00
2018-12-13T07:54:03.066Z,100.00
2018-12-13T07:56:31.504Z,100.00
2018-12-13T07:58:59.825Z,100.00
2018-12-13T08:01:28.166Z,100.00
2018-12-13T08:03:56.541Z,100.00
2018-12-13T08:06:24.923Z,100.00
2018-12-13T08:08:53.399Z,100.00
2018-12-13T08:11:21.822Z,100.00
2018-12-13T08:13:50.177Z,100.00
2018-12-13T08:16:18.507Z,100.00
2018-12-13T08:18:46.829Z,100.00
2018-12-13T08:21:15.296Z,100.00
2018-12-13T08:23:44.659Z,100.00
2018-12-13T08:26:13.099Z,100.00
2018-12-13T08:28:41.511Z,100.00
2018-12-13T08:31:09.830Z,100.00
2018-12-13T08:33:38.142Z,100.00
2018-12-13T08:36:06.499Z,100.00
2018-12-13T08:38:34.824Z,100.00
2018-12-13T08:41:03.140Z,99.90
2018-12-13T08:43:31.488Z,100.00
2018-12-13T08:45:59.951Z,100.00
2018-12-13T08:48:28.569Z,100.00
2018-12-13T08:50:56.903Z,100.00
2018-12-13T08:53:25.454Z,98.82
2018-12-13T08:55:53.776Z,98.25
2018-12-13T08:58:22.241Z,96.82
2018-12-13T09:00:50.558Z,96.20
2018-12-13T09:03:18.932Z,95.43
2018-12-13T09:05:47.223Z,97.50
2018-12-13T09:08:15.583Z,94.84
2018-12-13T09:10:43.938Z,96.37
2018-12-13T09:13:12.280Z,95.27
2018-12-13T09:15:40.643Z,94.75
2018-12-13T09:18:09.060Z,96.25
2018-12-13T09:20:37.400Z,93.33
2018-12-13T09:23:05.718Z,91.91
2018-12-13T09:25:34.081Z,93.17
2018-12-13T09:28:02.514Z,92.78
2018-12-13T09:30:30.835Z,92.21
2018-12-13T09:32:59.187Z,92.83
2018-12-13T09:35:27.572Z,91.97
2018-12-13T09:37:55.911Z,89.28
2018-12-13T09:40:24.260Z,88.98
2018-12-13T09:42:52.593Z,87.97
2018-12-13T09:45:20.925Z,88.85
2018-12-13T09:47:49.328Z,87.94
2018-12-13T09:50:17.657Z,88.90
2018-12-13T09:52:45.971Z,85.73
2018-12-13T09:55:14.285Z,83.03
2018-12-13T09:57:42.611Z,82.17
2018-12-13T10:00:11.288Z,81.62
2018-12-13T10:02:39.618Z,81.18
2018-12-13T10:05:08.025Z,82.14
2018-12-13T10:07:36.395Z,79.90
2018-12-13T10:10:05.246Z,80.88
2018-12-13T10:12:33.603Z,80.39
2018-12-13T10:15:01.946Z,79.08
2018-12-13T10:17:30.375Z,79.57
2018-12-13T10:19:58.779Z,77.91
2018-12-13T10:22:28.606Z,78.95
2018-12-13T10:24:57.207Z,78.92
2018-12-13T10:27:25.648Z,77.43
2018-12-13T10:29:53.965Z,77.43
2018-12-13T10:32:22.325Z,76.84
2018-12-13T10:34:50.641Z,75.07
2018-12-13T10:37:18.964Z,75.99
2018-12-13T10:39:47.411Z,75.67
2018-12-13T10:42:15.718Z,75.27
2018-12-13T10:44:44.037Z,73.00
2018-12-13T10:47:12.388Z,73.68
2018-12-13T10:49:40.743Z,73.70
2018-12-13T10:52:09.113Z,75.09
2018-12-13T10:54:37.539Z,72.98
2018-12-13T10:57:06.028Z,71.00
2018-12-13T10:59:34.868Z,70.37
2018-12-13T11:02:05.171Z,70.85
2018-12-13T11:04:33.533Z,69.58
2018-12-13T11:07:01.952Z,69.37
2018-12-13T11:09:30.251Z,69.34
2018-12-13T11:11:58.739Z,69.58
2018-12-13T11:14:27.084Z,69.32
2018-12-13T11:16:55.528Z,68.11
2018-12-13T11:19:23.872Z,68.51
2018-12-13T11:21:52.267Z,68.84
2018-12-13T11:24:20.620Z,67.07
2018-12-13T11:26:48.944Z,68.12
2018-12-13T11:32:34.383Z,69.36
2018-12-13T11:35:02.699Z,69.04
2018-12-13T11:37:31.019Z,71.04
2018-12-13T11:39:59.375Z,69.32
2018-12-13T11:42:27.753Z,68.53
2018-12-13T11:44:56.200Z,68.08
2018-12-13T11:47:24.552Z,66.48
2018-12-13T11:49:53.027Z,65.17
2018-12-13T11:52:22.116Z,66.56
2018-12-13T11:54:50.434Z,66.19
2018-12-13T11:57:18.860Z,64.47
2018-12-13T11:59:47.201Z,65.05
2018-12-13T12:02:15.531Z,63.11
2018-12-13T12:04:43.911Z,63.68
2018-12-13T12:07:12.315Z,62.63
2018-12-13T12:09:40.644Z,61.75
2018-12-13T12:12:09.092Z,62.86
2018-12-13T12:14:37.435Z,63.37
2018-12-13T12:17:05.807Z,62.08
2018-12-13T12:19:34.137Z,61.86
2018-12-13T12:22:02.470Z,61.27
2018-12-13T12:24:30.860Z,62.26
2018-12-13T12:26:59.219Z,61.09
2018-12-13T12:29:27.584Z,63.12
2018-12-13T12:31:55.955Z,60.35
2018-12-13T12:34:24.585Z,61.71
2018-12-13T12:36:52.939Z,62.12
2018-12-13T12:39:21.406Z,60.27
2018-12-13T12:41:49.842Z,60.24
2018-12-13T12:44:18.265Z,60.81
2018-12-13T12:46:46.608Z,59.29
2018-12-13T12:49:14.940Z,57.93
2018-12-13T12:51:43.292Z,57.88
2018-12-13T12:54:11.628Z,58.31
2018-12-13T12:56:39.962Z,57.41
2018-12-13T12:59:08.283Z,57.54
2018-12-13T13:01:36.636Z,58.00
2018-12-13T13:04:05.040Z,57.64
2018-12-13T13:06:33.384Z,59.11
2018-12-13T13:09:01.767Z,58.31
2018-12-13T13:11:30.099Z,58.17
2018-12-13T13:13:58.441Z,57.15
2018-12-13T13:16:26.816Z,58.35
2018-12-13T13:18:55.188Z,57.62
2018-12-13T13:21:23.557Z,57.05
2018-12-13T13:23:52.088Z,56.80
2018-12-13T13:26:20.398Z,57.25
2018-12-13T13:28:48.743Z,57.21
2018-12-13T13:31:17.096Z,56.99
2018-12-13T13:33:45.501Z,57.65
2018-12-13T13:36:13.824Z,58.52
2018-12-13T13:38:42.179Z,58.91
2018-12-13T13:41:10.518Z,57.84
2018-12-13T13:43:38.940Z,58.61
2018-12-13T13:46:07.398Z,58.42
2018-12-13T13:48:35.704Z,58.49
2018-12-13T13:51:04.072Z,58.38
2018-12-13T13:53:32.438Z,58.08
2018-12-13T13:56:00.720Z,57.87
2018-12-13T13:58:29.059Z,57.13
2018-12-13T14:00:57.400Z,55.87
2018-12-13T14:03:25.778Z,57.97
2018-12-13T14:05:54.163Z,56.53
2018-12-13T14:08:22.539Z,57.25
2018-12-13T14:10:50.859Z,57.47
2018-12-13T14:13:19.223Z,57.15
2018-12-13T14:15:47.554Z,58.60
2018-12-13T14:18:15.955Z,57.90
2018-12-13T14:20:44.298Z,59.60
2018-12-13T14:23:12.959Z,60.35
2018-12-13T14:25:41.318Z,57.97
2018-12-13T14:28:09.645Z,58.60
2018-12-13T14:33:15.929Z,58.98
2018-12-13T14:35:44.282Z,59.18
2018-12-13T14:38:12.617Z,58.98
2018-12-13T14:40:40.947Z,59.17
2018-12-13T14:43:09.351Z,60.96
2018-12-13T14:45:37.721Z,60.63
2018-12-13T14:48:06.218Z,61.21
2018-12-13T14:50:34.554Z,60.73
2018-12-13T14:53:02.917Z,62.17
2018-12-13T14:55:31.282Z,62.96
2018-12-13T14:57:59.624Z,62.79
2018-12-13T15:00:27.958Z,63.43
2018-12-13T15:02:56.401Z,63.88
2018-12-13T15:05:24.945Z,65.59
2018-12-13T15:07:53.293Z,66.58
2018-12-13T15:10:21.730Z,69.35
2018-12-13T15:12:50.107Z,67.66
2018-12-13T15:15:18.587Z,68.38
2018-12-13T15:17:46.929Z,67.29
2018-12-13T15:20:15.255Z,69.31
2018-12-13T15:22:43.615Z,68.36
2018-12-13T15:25:11.965Z,69.08
2018-12-13T15:27:40.728Z,68.70
2018-12-13T15:30:09.259Z,69.58
2018-12-13T15:32:37.600Z,69.02
2018-12-13T15:35:06.161Z,69.39
2018-12-13T15:37:34.504Z,66.68
2018-12-13T15:40:02.911Z,66.07
2018-12-13T15:42:31.323Z,67.16
2018-12-13T15:44:59.761Z,67.58
2018-12-13T15:47:28.168Z,68.16
2018-12-13T15:49:56.627Z,69.13
2018-12-13T15:52:24.978Z,70.15
2018-12-13T15:54:53.369Z,69.86
2018-12-13T15:57:21.750Z,69.76
2018-12-13T15:59:50.087Z,71.81
2018-12-13T16:02:18.417Z,71.25
2018-12-13T16:04:46.790Z,72.30
2018-12-13T16:07:15.175Z,72.89
2018-12-13T16:09:43.553Z,74.69
2018-12-13T16:12:11.941Z,75.04
2018-12-13T16:14:40.522Z,76.74
2018-12-13T16:17:08.857Z,79.32
2018-12-13T16:19:37.281Z,76.97
2018-12-13T16:22:05.609Z,76.57
2018-12-13T16:24:36.661Z,77.58
2018-12-13T16:27:05.247Z,75.26
2018-12-13T16:29:33.548Z,75.50
2018-12-13T16:32:02.036Z,73.74
2018-12-13T16:34:30.508Z,74.09
2018-12-13T16:36:58.825Z,75.13
2018-12-13T16:39:27.220Z,72.95
2018-12-13T16:41:55.594Z,73.14
2018-12-13T16:44:24.026Z,73.55
2018-12-13T16:46:52.547Z,74.03
2018-12-13T16:49:20.871Z,76.56
2018-12-13T16:51:49.264Z,77.54
2018-12-13T16:54:17.599Z,79.46
2018-12-13T16:56:45.948Z,80.90
2018-12-13T16:59:14.330Z,81.85
2018-12-13T17:01:42.669Z,83.74
2018-12-13T17:04:10.981Z,84.05
2018-12-13T17:06:39.306Z,84.98
2018-12-13T17:09:07.745Z,86.28
2018-12-13T17:11:36.104Z,84.13
2018-12-13T17:14:04.650Z,84.88
2018-12-13T17:16:33.412Z,82.61
2018-12-13T17:19:01.760Z,81.68
2018-12-13T17:21:30.137Z,83.66
2018-12-13T17:23:58.529Z,77.99
2018-12-13T17:26:26.917Z,77.15
2018-12-13T17:28:55.504Z,74.66
2018-12-13T17:31:23.832Z,73.82
2018-12-13T17:33:52.299Z,74.03
2018-12-13T17:36:20.655Z,73.71
2018-12-13T17:38:48.977Z,72.66
2018-12-13T17:41:17.337Z,72.60
2018-12-13T17:43:45.668Z,71.21
2018-12-13T17:46:14.061Z,73.40
2018-12-13T17:48:42.402Z,72.48
2018-12-13T17:51:10.744Z,71.80
2018-12-13T17:53:39.204Z,71.79
2018-12-13T17:56:07.520Z,71.00
2018-12-13T17:58:35.907Z,72.28
2018-12-13T18:01:04.279Z,70.95
2018-12-13T18:03:32.774Z,72.10
2018-12-13T18:06:01.139Z,71.83
2018-12-13T18:08:29.633Z,72.34
2018-12-13T18:10:57.980Z,71.94
2018-12-13T18:13:27.680Z,72.88
2018-12-13T18:15:56.141Z,72.21
2018-12-13T18:18:24.506Z,72.87
2018-12-13T18:20:52.924Z,71.72
2018-12-13T18:23:21.256Z,72.47
2018-12-13T18:25:50.040Z,74.15
2018-12-13T18:28:18.401Z,75.31
2018-12-13T18:30:46.814Z,76.83
2018-12-13T18:33:15.141Z,76.87
2018-12-13T18:35:43.472Z,79.09
2018-12-13T18:38:12.120Z,78.23
2018-12-13T18:40:40.465Z,77.62
2018-12-13T18:43:08.971Z,78.33
2018-12-13T18:45:37.640Z,79.00
2018-12-13T18:48:06.082Z,80.31
2018-12-13T18:50:34.594Z,81.37
2018-12-13T18:53:02.997Z,80.14
2018-12-13T18:55:31.479Z,80.76
2018-12-13T18:57:59.854Z,80.31
2018-12-13T19:00:28.418Z,81.31
2018-12-13T19:02:56.875Z,81.64
2018-12-13T19:05:25.211Z,82.05
2018-12-13T19:07:53.562Z,81.81
2018-12-13T19:10:21.879Z,82.56
2018-12-13T19:12:50.314Z,82.49
2018-12-13T19:15:18.656Z,80.92
2018-12-13T19:17:47.068Z,82.10
2018-12-13T19:20:15.431Z,82.26
2018-12-13T19:22:43.834Z,82.48
2018-12-13T19:25:12.178Z,84.45
2018-12-13T19:27:40.568Z,83.61
2018-12-13T19:30:09.096Z,83.78
2018-12-13T19:32:37.415Z,78.64
2018-12-13T19:35:05.887Z,78.63
2018-12-13T19:37:34.285Z,79.31
2018-12-13T19:40:02.612Z,80.25
2018-12-13T19:42:31.018Z,79.87
2018-12-13T19:44:59.364Z,79.75
2018-12-13T19:47:27.717Z,78.71
2018-12-13T19:49:56.089Z,76.93
2018-12-13T19:52:24.406Z,75.84
2018-12-13T19:54:52.761Z,74.22
2018-12-13T19:57:21.122Z,73.18
2018-12-13T19:59:49.622Z,73.49
2018-12-13T20:02:18.008Z,73.24
2018-12-13T20:04:46.350Z,73.25
2018-12-13T20:07:14.784Z,72.76
2018-12-13T20:09:43.357Z,76.32
2018-12-13T20:12:11.697Z,76.30
2018-12-13T20:14:40.059Z,77.05
2018-12-13T20:17:08.460Z,75.18
2018-12-13T20:19:36.788Z,74.43
2018-12-13T20:22:05.163Z,74.55
2018-12-13T20:24:33.513Z,74.06
2018-12-13T20:27:02.012Z,74.07
2018-12-13T20:29:30.443Z,73.85
2018-12-13T20:31:58.929Z,74.73
2018-12-13T20:34:27.259Z,74.66
2018-12-13T20:36:55.651Z,76.56
2018-12-13T20:39:24.008Z,76.75
2018-12-13T20:41:52.403Z,76.19
2018-12-13T20:44:20.819Z,76.71
2018-12-13T20:46:49.139Z,77.79
2018-12-13T20:49:17.536Z,77.75
2018-12-13T20:51:45.960Z,77.46
2018-12-13T20:54:14.364Z,77.99
2018-12-13T20:56:42.720Z,78.56
2018-12-13T20:59:11.215Z,79.81
2018-12-13T21:01:39.569Z,77.29
2018-12-13T21:04:07.929Z,77.78
2018-12-13T21:06:36.298Z,78.76
2018-12-13T21:09:06.619Z,78.97
2018-12-13T21:11:34.958Z,78.12
2018-12-13T21:14:03.271Z,78.04
2018-12-13T21:16:31.637Z,78.72
2018-12-13T21:19:00.015Z,78.85
2018-12-13T21:21:28.423Z,79.50
2018-12-13T21:23:56.763Z,80.50
2018-12-13T21:26:25.124Z,80.38
2018-12-13T21:28:53.481Z,79.80
2018-12-13T21:31:21.802Z,76.87
2018-12-13T21:33:50.229Z,78.77
2018-12-13T21:36:18.889Z,77.12
2018-12-13T21:38:47.333Z,75.76
2018-12-13T21:41:15.689Z,74.98
2018-12-13T21:43:44.059Z,77.13
2018-12-13T21:46:12.428Z,76.69
2018-12-13T21:48:40.827Z,75.12
2018-12-13T21:51:09.152Z,75.36
2018-12-13T21:53:37.520Z,73.72
2018-12-13T21:56:05.860Z,75.87
2018-12-13T21:58:34.200Z,75.34
2018-12-13T22:01:02.528Z,74.91
2018-12-13T22:03:30.858Z,74.53
2018-12-13T22:05:59.230Z,73.91
2018-12-13T22:08:27.572Z,75.01
2018-12-13T22:10:55.901Z,74.23
2018-12-13T22:13:24.227Z,74.87
2018-12-13T22:15:52.570Z,77.98
2018-12-13T22:18:20.979Z,76.55
2018-12-13T22:20:49.313Z,75.95
2018-12-13T22:23:17.803Z,76.52
2018-12-13T22:25:46.116Z,75.48
2018-12-13T22:28:15.441Z,75.19
2018-12-13T22:30:43.823Z,76.36
2018-12-13T22:33:12.223Z,75.65
2018-12-13T22:35:40.686Z,78.07
2018-12-13T22:38:09.193Z,76.82
2018-12-13T22:40:37.527Z,78.35
2018-12-13T22:43:05.863Z,77.94
2018-12-13T22:45:34.229Z,79.43
2018-12-13T22:48:02.545Z,77.43
2018-12-13T22:50:30.863Z,74.82
2018-12-13T22:52:59.212Z,73.63
2018-12-13T22:55:27.563Z,74.42
2018-12-13T22:57:55.905Z,71.94
2018-12-13T23:00:24.487Z,72.49
2018-12-13T23:02:52.905Z,72.15
2018-12-13T23:05:21.279Z,71.11
2018-12-13T23:07:49.696Z,72.35
2018-12-13T23:10:18.035Z,71.84
2018-12-13T23:12:46.376Z,71.32
2018-12-13T23:15:14.701Z,69.61
2018-12-13T23:17:43.047Z,69.32
2018-12-13T23:20:11.373Z,68.73
2018-12-13T23:22:39.720Z,69.46
2018-12-13T23:25:08.139Z,70.94
2018-12-13T23:27:36.471Z,70.74
2018-12-13T23:30:09.123Z,70.45
2018-12-13T23:32:37.449Z,70.47
2018-12-13T23:35:05.911Z,71.46
2018-12-13T23:37:34.248Z,72.42
2018-12-13T23:40:02.563Z,73.17
2018-12-13T23:42:30.903Z,73.32
2018-12-13T23:44:59.352Z,73.74
2018-12-13T23:47:27.693Z,72.99
2018-12-13T23:49:56.072Z,73.80
2018-12-13T23:52:24.455Z,74.26
2018-12-13T23:54:52.763Z,74.78
2018-12-13T23:57:21.076Z,74.26
2018-12-13T23:59:49.407Z,74.65
